Alstead Center, New Hampshire
Current Conditions -  °F | °C
As of 8:35 PM on Monday 24 Nov 2014 (Local Time) from KEEN Reporting Station
Clear Clear  
Wind Chill: 63°   Ceiling: Unl
Heat Index: 63°   Visibility: 10mi
Dew Point: 54°   Wind: 13mph
Humidity: 72%   Direction: 200°SSW
Pressure: 29.62"   Gusts: 22mph
Location:  43.1141°N, 72.3097°W
Report Text: KEEN 250135Z AUTO 20011G19KT 10SM CLR 17/12 A2962 RMK AO1
Loading
Personal Weather Stations






























Interactive Weather Map New forecast layout! Learn more

10-Day Weather Forecast

Advertisements
Track Severe Weather on mobile